Haddam, CT (06438)

9:06 PM EST on January 25, 2015 (GMT -0500)
APRSWXNET Haddam CT US | Change Station
CLOSE
Current Station
Personal Weather Station
Location: Haddam, CT
Elevation: 400 ft
Nearby Weather Stations

Elev 400 ft 41.45 °N, 72.50 °W | Updated 32 minutes ago

Clear
Clear
26 °F
Feels Like 26 °F
N
3
Wind Variable Wind from NNE
Gusts 8.0 mph

Today
High -- | Low -- °F
--% Chance of Precip.
Yesterday
High -- | Low -- °F
Precip. -- in
7:08 AM 4:57 PM
Waxing Crescent, 38% visible
Pressure 29.96 in
Visibility 10.0 miles
Clouds Clear
Windchill 26 °F
Dew Point 11 °F
Humidity 53%
Rainfall -999.00 in
Snow Depth Not available.
UV 0 out of 12
Pollen .10 out of 12
Air Quality Not available.
Flu Activity Not available.
METAR KSNC 260155Z AUTO 36005KT 10SM CLR M02/M13 A2996 RMK AO2

More Conditions Fewer Conditions

Pressure 29.96 in
Visibility 10.0 miles
Clouds Clear
Windchill 26 °F
Dew Point 11 °F
Humidity 53%
Rainfall -999.00 in
Snow Depth Not available.
UV 0 out of 12
Pollen .10 out of 12
Air Quality Not available.
Flu Activity Not available.
METAR KSNC 260155Z AUTO 36005KT 10SM CLR M02/M13 A2996 RMK AO2

More Conditions Fewer Conditions

10-Day Weather Forecast

Almanac

Astronomy

Jan. 25, 2015 Rise Set
Actual Time
Civil Twilight
Nautical Twilight
Astronomical Twilight
Moon
Length of Visible Light
Length of Day
Tomorrow will be .
, % of the Moon is Illuminated

Today's Extremes

State Highs State Lows

Community

WunderPhotos

Upload Photos

1,790,063 photos uploaded!

WunderBlogs® & News

Nearby

Air Quality

  Air Quality AQ Index Pollutant
Not available.

Snow Depth

Station Depth Elevation

Earthquake Activity

City Distance Mag. Time & Date
Minimum magnitude displayed is 2.5.

Coastal Water Temperatures

Place Temperature

Nearby Weather Stations